createdAt,value
2018-09-19T00:02:17.192Z,65.87
2018-09-19T00:04:45.731Z,65.48
2018-09-19T00:07:14.397Z,65.84
2018-09-19T00:09:42.997Z,65.96
2018-09-19T00:12:11.568Z,65.93
2018-09-19T00:14:40.276Z,66.58
2018-09-19T00:17:08.897Z,66.25
2018-09-19T00:19:37.441Z,65.78
2018-09-19T00:22:05.989Z,66.61
2018-09-19T00:24:34.595Z,66.97
2018-09-19T00:27:03.115Z,66.97
2018-09-19T00:29:31.733Z,67.18
2018-09-19T00:32:01.137Z,67.00
2018-09-19T00:34:29.828Z,67.14
2018-09-19T00:36:58.585Z,67.93
2018-09-19T00:39:27.081Z,67.52
2018-09-19T00:41:55.587Z,67.40
2018-09-19T00:44:24.228Z,68.50
2018-09-19T00:46:52.711Z,68.39
2018-09-19T00:49:21.384Z,68.66
2018-09-19T00:51:49.897Z,68.79
2018-09-19T00:54:18.474Z,68.83
2018-09-19T00:56:47.131Z,69.57
2018-09-19T00:59:15.690Z,70.07
2018-09-19T01:01:45.034Z,70.43
2018-09-19T01:04:13.598Z,70.58
2018-09-19T01:06:42.294Z,71.16
2018-09-19T01:09:10.979Z,71.15
2018-09-19T01:11:39.983Z,71.39
2018-09-19T01:14:08.716Z,71.35
2018-09-19T01:16:37.286Z,71.68
2018-09-19T01:19:05.869Z,72.08
2018-09-19T01:21:34.424Z,72.24
2018-09-19T01:24:03.137Z,71.82
2018-09-19T01:26:32.467Z,72.61
2018-09-19T01:29:01.052Z,72.15
2018-09-19T01:31:29.599Z,72.57
2018-09-19T01:33:58.244Z,72.60
2018-09-19T01:36:27.802Z,72.35
2018-09-19T01:38:56.515Z,72.41
2018-09-19T01:41:25.015Z,72.51
2018-09-19T01:43:53.679Z,72.89
2018-09-19T01:46:22.208Z,73.03
2018-09-19T01:48:51.070Z,72.80
2018-09-19T01:51:19.682Z,73.19
2018-09-19T01:53:49.263Z,72.95
2018-09-19T01:56:18.496Z,73.28
2018-09-19T01:58:47.141Z,73.22
2018-09-19T02:01:15.684Z,73.25
2018-09-19T02:03:44.318Z,73.07
2018-09-19T02:06:12.939Z,73.15
2018-09-19T02:08:41.735Z,72.82
2018-09-19T02:11:10.363Z,72.96
2018-09-19T02:13:38.956Z,72.54
2018-09-19T02:16:07.569Z,73.10
2018-09-19T02:18:36.890Z,72.77
2018-09-19T02:21:05.603Z,72.99
2018-09-19T02:23:34.224Z,72.50
2018-09-19T02:26:03.025Z,72.79
2018-09-19T02:28:31.723Z,72.50
2018-09-19T02:31:01.214Z,72.85
2018-09-19T02:33:30.250Z,72.86
2018-09-19T02:35:58.926Z,72.95
2018-09-19T02:38:27.543Z,72.98
2018-09-19T02:40:56.043Z,73.29
2018-09-19T02:43:24.668Z,73.60
2018-09-19T02:45:53.282Z,73.36
2018-09-19T02:48:21.869Z,73.75
2018-09-19T02:50:50.537Z,73.63
2018-09-19T02:53:19.107Z,73.35
2018-09-19T02:55:47.619Z,73.48
2018-09-19T02:58:16.541Z,73.59
2018-09-19T03:00:45.225Z,74.06
2018-09-19T03:03:14.851Z,74.03
2018-09-19T03:05:43.392Z,74.29
2018-09-19T03:08:12.013Z,74.07
2018-09-19T03:10:40.530Z,73.74
2018-09-19T03:13:09.073Z,74.58
2018-09-19T03:15:37.726Z,74.28
2018-09-19T03:18:06.291Z,74.39
2018-09-19T03:20:34.841Z,74.83
2018-09-19T03:23:03.570Z,75.11
2018-09-19T03:25:32.134Z,75.35
2018-09-19T03:28:00.816Z,75.42
2018-09-19T03:30:29.855Z,75.63
2018-09-19T03:32:58.328Z,75.92
2018-09-19T03:35:26.944Z,76.32
2018-09-19T03:37:55.429Z,76.86
2018-09-19T03:40:25.009Z,77.08
2018-09-19T03:42:53.595Z,77.64
2018-09-19T03:45:22.267Z,77.95
2018-09-19T03:47:50.937Z,78.27
2018-09-19T03:50:19.697Z,78.57
2018-09-19T03:52:48.785Z,79.09
2018-09-19T03:55:17.275Z,79.40
2018-09-19T03:57:45.733Z,79.82
2018-09-19T04:00:14.458Z,79.97
2018-09-19T04:02:42.984Z,80.22
2018-09-19T04:05:12.145Z,80.26
2018-09-19T04:07:40.627Z,80.66
2018-09-19T04:10:09.163Z,80.75
2018-09-19T04:12:37.708Z,81.12
2018-09-19T04:15:06.280Z,80.72
2018-09-19T04:17:34.920Z,81.05
2018-09-19T04:20:03.540Z,81.30
2018-09-19T04:22:32.065Z,81.64
2018-09-19T04:25:00.587Z,82.25
2018-09-19T04:27:29.193Z,82.58
2018-09-19T04:29:57.760Z,82.48
2018-09-19T04:32:26.494Z,83.09
2018-09-19T04:34:55.057Z,82.99
2018-09-19T04:37:23.644Z,83.03
2018-09-19T04:39:52.294Z,82.76
2018-09-19T04:42:20.873Z,82.80
2018-09-19T04:44:49.402Z,82.18
2018-09-19T04:47:18.081Z,82.82
2018-09-19T04:49:48.345Z,82.55
2018-09-19T04:52:16.965Z,82.98
2018-09-19T04:54:45.710Z,83.39
2018-09-19T04:57:14.298Z,83.97
2018-09-19T04:59:43.032Z,84.28
2018-09-19T05:02:11.591Z,84.75
2018-09-19T05:04:40.361Z,84.79
2018-09-19T05:07:09.666Z,85.32
2018-09-19T05:09:38.151Z,85.65
2018-09-19T05:12:06.949Z,85.39
2018-09-19T05:14:35.547Z,85.08
2018-09-19T05:17:04.231Z,84.39
2018-09-19T05:19:33.414Z,84.11
2018-09-19T05:22:03.023Z,83.68
2018-09-19T05:24:32.432Z,82.81
2018-09-19T05:27:01.029Z,82.54
2018-09-19T05:29:29.624Z,81.41
2018-09-19T05:31:58.247Z,81.18
2018-09-19T05:34:26.788Z,79.93
2018-09-19T05:36:55.566Z,79.07
2018-09-19T05:39:24.119Z,78.16
2018-09-19T05:41:52.988Z,77.31
2018-09-19T05:44:21.658Z,76.71
2018-09-19T05:46:50.785Z,76.58
2018-09-19T05:49:19.336Z,75.11
2018-09-19T05:51:48.032Z,75.36
2018-09-19T05:54:16.662Z,74.16
2018-09-19T05:56:45.309Z,73.46
2018-09-19T05:59:14.031Z,74.29
2018-09-19T06:01:42.613Z,73.66
2018-09-19T06:04:11.239Z,73.08
2018-09-19T06:06:39.816Z,72.62
2018-09-19T06:09:09.602Z,71.83
2018-09-19T06:11:38.191Z,71.62
2018-09-19T06:14:06.830Z,70.41
2018-09-19T06:16:35.574Z,70.58
2018-09-19T06:19:04.331Z,69.50
2018-09-19T06:21:32.928Z,69.29
2018-09-19T06:24:01.561Z,68.57
2018-09-19T06:26:30.160Z,69.33
2018-09-19T06:28:58.678Z,68.67
2018-09-19T06:31:27.274Z,68.92
2018-09-19T06:33:56.881Z,68.23
2018-09-19T06:36:25.449Z,68.15
2018-09-19T06:38:53.974Z,66.79
2018-09-19T06:41:22.572Z,67.61
2018-09-19T06:43:51.094Z,67.98
2018-09-19T06:46:20.592Z,66.91
2018-09-19T06:48:49.160Z,66.31
2018-09-19T06:51:17.677Z,67.16
2018-09-19T06:53:47.027Z,66.46
2018-09-19T06:56:15.609Z,65.78
2018-09-19T06:58:44.467Z,65.98
2018-09-19T07:01:13.085Z,65.16
2018-09-19T07:03:41.689Z,64.17
2018-09-19T07:06:10.230Z,63.87
2018-09-19T07:08:38.753Z,64.23
2018-09-19T07:11:07.324Z,64.04
2018-09-19T07:13:35.933Z,64.10
2018-09-19T07:16:04.704Z,63.53
2018-09-19T07:18:33.345Z,63.34
2018-09-19T07:21:01.991Z,63.55
2018-09-19T07:23:30.594Z,63.72
2018-09-19T07:25:59.285Z,63.25
2018-09-19T07:28:27.939Z,63.38
2018-09-19T07:30:56.519Z,62.74
2018-09-19T07:33:25.054Z,62.21
2018-09-19T07:35:54.342Z,63.31
2018-09-19T07:38:22.960Z,62.92
2018-09-19T07:40:51.622Z,62.98
2018-09-19T07:43:20.225Z,62.50
2018-09-19T07:45:49.039Z,62.08
2018-09-19T07:48:17.784Z,61.51
2018-09-19T07:50:46.445Z,61.64
2018-09-19T07:53:21.727Z,61.22
2018-09-19T07:55:50.393Z,61.53
2018-09-19T07:58:19.130Z,60.70
2018-09-19T08:00:47.884Z,60.44
2018-09-19T08:03:16.492Z,59.47
2018-09-19T08:05:44.946Z,59.67
2018-09-19T08:08:14.162Z,59.58
2018-09-19T08:10:43.160Z,59.75
2018-09-19T08:13:12.442Z,58.83
2018-09-19T08:15:42.011Z,59.22
2018-09-19T08:18:10.730Z,58.46
2018-09-19T08:20:39.461Z,58.08
2018-09-19T08:23:08.842Z,57.79
2018-09-19T08:25:37.380Z,58.33
2018-09-19T08:28:06.057Z,58.14
2018-09-19T08:30:35.191Z,58.28
2018-09-19T08:33:03.983Z,56.92
2018-09-19T08:35:32.616Z,57.56
2018-09-19T08:38:02.281Z,55.69
2018-09-19T08:40:30.805Z,56.23
2018-09-19T08:42:59.522Z,55.81
2018-09-19T08:45:28.333Z,56.11
2018-09-19T08:47:57.062Z,56.04
2018-09-19T08:50:25.636Z,54.56
2018-09-19T08:52:54.218Z,54.43
2018-09-19T08:55:22.983Z,54.83
2018-09-19T08:57:51.686Z,54.81
2018-09-19T09:00:20.536Z,55.72
2018-09-19T09:02:49.509Z,56.14
2018-09-19T09:05:18.117Z,55.40
2018-09-19T09:07:46.775Z,54.47
2018-09-19T09:10:15.444Z,53.81
2018-09-19T09:12:46.161Z,54.52
2018-09-19T09:15:14.771Z,53.41
2018-09-19T09:17:43.478Z,53.71
2018-09-19T09:20:12.114Z,53.10
2018-09-19T09:22:40.611Z,52.66
2018-09-19T09:25:09.521Z,51.44
2018-09-19T09:27:38.108Z,51.52
2018-09-19T09:30:07.220Z,50.08
2018-09-19T09:32:36.021Z,51.32
2018-09-19T09:35:05.101Z,51.67
2018-09-19T09:37:33.798Z,51.40
2018-09-19T09:40:02.464Z,51.07
2018-09-19T09:42:31.269Z,49.78
2018-09-19T09:44:59.859Z,49.11
2018-09-19T09:47:28.450Z,50.19
2018-09-19T09:49:57.155Z,50.17
2018-09-19T09:52:26.011Z,49.68
2018-09-19T09:54:54.655Z,49.90
2018-09-19T09:57:23.325Z,48.89
2018-09-19T09:59:51.975Z,50.20
2018-09-19T10:02:20.501Z,48.58
2018-09-19T10:04:49.781Z,49.82
2018-09-19T10:07:18.597Z,48.65
2018-09-19T10:09:47.317Z,48.75
2018-09-19T10:12:16.026Z,48.77
2018-09-19T10:14:44.586Z,48.47
2018-09-19T10:17:13.248Z,47.39
2018-09-19T10:19:41.818Z,47.48
2018-09-19T10:22:10.431Z,47.67
2018-09-19T10:24:39.058Z,47.29
2018-09-19T10:27:07.590Z,46.17
2018-09-19T10:29:37.403Z,46.76
2018-09-19T10:32:05.990Z,46.77
2018-09-19T10:34:34.978Z,46.38
2018-09-19T10:37:03.600Z,46.05
2018-09-19T10:39:32.310Z,45.91
2018-09-19T10:42:00.981Z,44.50
2018-09-19T10:44:29.665Z,45.17
2018-09-19T10:46:58.429Z,43.69
2018-09-19T10:49:27.266Z,44.31
2018-09-19T10:51:56.017Z,44.84
2018-09-19T10:54:24.681Z,44.74
2018-09-19T10:56:53.237Z,44.39
2018-09-19T10:59:22.085Z,44.38
2018-09-19T11:01:50.602Z,43.52
2018-09-19T11:04:19.189Z,43.67
2018-09-19T11:06:47.950Z,43.28
2018-09-19T11:09:16.546Z,42.11
2018-09-19T11:11:45.265Z,41.97
2018-09-19T11:14:13.859Z,41.07
2018-09-19T11:16:42.526Z,40.69
2018-09-19T11:19:11.151Z,41.80
2018-09-19T11:21:39.738Z,39.65
2018-09-19T11:24:08.811Z,37.21
2018-09-19T11:26:37.587Z,36.35
2018-09-19T11:29:06.166Z,36.34
2018-09-19T11:31:35.012Z,35.67
2018-09-19T11:34:03.833Z,34.55
2018-09-19T11:36:32.536Z,35.31
2018-09-19T11:39:01.074Z,35.33
2018-09-19T11:41:29.700Z,34.44
2018-09-19T11:43:58.230Z,34.67
2018-09-19T11:46:27.941Z,34.11
2018-09-19T11:48:56.481Z,32.77
2018-09-19T11:51:25.039Z,31.68
2018-09-19T11:53:53.614Z,31.74
2018-09-19T11:56:22.208Z,31.27
2018-09-19T11:58:50.793Z,32.52
2018-09-19T12:01:19.552Z,31.57
2018-09-19T12:03:48.926Z,30.90
2018-09-19T12:06:17.478Z,30.33
2018-09-19T12:08:46.065Z,30.84
2018-09-19T12:11:14.578Z,31.42
2018-09-19T12:13:43.226Z,30.37
2018-09-19T12:16:11.826Z,29.60
2018-09-19T12:18:40.494Z,28.30
2018-09-19T12:21:09.104Z,29.65
2018-09-19T12:23:38.379Z,29.27
2018-09-19T12:26:07.091Z,30.36
2018-09-19T12:28:35.685Z,28.17
2018-09-19T12:31:04.333Z,29.88
2018-09-19T12:33:33.230Z,29.76
2018-09-19T12:36:01.781Z,30.43
2018-09-19T12:38:30.497Z,29.37
2018-09-19T12:40:59.032Z,30.48
2018-09-19T12:43:27.607Z,28.64
2018-09-19T12:45:56.215Z,28.85
2018-09-19T12:48:24.758Z,27.83
2018-09-19T12:50:53.383Z,27.47
2018-09-19T12:53:23.798Z,26.86
2018-09-19T12:55:53.528Z,28.39
2018-09-19T12:58:22.115Z,27.77
2018-09-19T13:00:51.368Z,27.41
2018-09-19T13:03:19.921Z,25.84
2018-09-19T13:05:49.519Z,25.90
2018-09-19T13:08:18.221Z,27.61
2018-09-19T13:10:47.915Z,27.32
2018-09-19T13:13:16.710Z,28.29
2018-09-19T13:15:45.583Z,27.65
2018-09-19T13:18:14.108Z,28.99
2018-09-19T13:20:42.847Z,28.92
2018-09-19T13:23:11.339Z,30.12
2018-09-19T13:25:40.029Z,30.27
2018-09-19T13:28:08.997Z,29.43
2018-09-19T13:30:37.791Z,28.43
2018-09-19T13:33:06.403Z,28.67
2018-09-19T13:35:34.947Z,29.31
2018-09-19T13:38:03.656Z,28.89
2018-09-19T13:40:32.169Z,28.50
2018-09-19T13:43:00.806Z,29.36
2018-09-19T13:45:29.501Z,27.54
2018-09-19T13:47:58.182Z,28.25
2018-09-19T13:50:36.950Z,28.18
2018-09-19T13:53:05.482Z,28.89
2018-09-19T13:55:33.993Z,28.93
2018-09-19T13:58:02.565Z,28.29
2018-09-19T14:00:31.685Z,28.19
2018-09-19T14:03:00.309Z,28.75
2018-09-19T14:05:28.890Z,27.09
2018-09-19T14:07:57.434Z,27.14
2018-09-19T14:10:26.057Z,26.76
2018-09-19T14:12:54.526Z,25.49
2018-09-19T14:15:23.236Z,25.95
2018-09-19T14:17:52.805Z,25.29
2018-09-19T14:20:21.294Z,26.62
2018-09-19T14:22:49.952Z,27.95
2018-09-19T14:25:18.541Z,26.94
2018-09-19T14:27:47.033Z,26.38
2018-09-19T14:30:15.856Z,29.58
2018-09-19T14:32:44.531Z,30.19
2018-09-19T14:35:13.389Z,31.69
2018-09-19T14:37:41.918Z,32.06
2018-09-19T14:40:10.507Z,33.52
2018-09-19T14:42:40.006Z,33.56
2018-09-19T14:45:08.727Z,33.87
2018-09-19T14:47:37.377Z,32.21
2018-09-19T14:50:06.936Z,33.18
2018-09-19T14:52:35.485Z,34.23
2018-09-19T14:55:04.330Z,33.47
2018-09-19T14:57:38.407Z,33.79
2018-09-19T15:00:08.468Z,34.02
2018-09-19T15:02:39.267Z,35.31
2018-09-19T15:05:07.870Z,35.28
2018-09-19T15:07:36.413Z,35.11
2018-09-19T15:10:05.088Z,34.62
2018-09-19T15:12:33.563Z,34.18
2018-09-19T15:15:02.133Z,35.04
2018-09-19T15:17:30.757Z,34.45
2018-09-19T15:19:59.340Z,34.60
2018-09-19T15:22:27.958Z,35.34
2018-09-19T15:24:56.697Z,35.44
2018-09-19T15:27:25.379Z,35.53
2018-09-19T15:29:54.159Z,34.05
2018-09-19T15:32:22.825Z,34.89
2018-09-19T15:34:51.620Z,34.17
2018-09-19T15:37:20.159Z,34.86
2018-09-19T15:39:48.644Z,34.40
2018-09-19T15:42:17.195Z,34.71
2018-09-19T15:44:46.049Z,33.54
2018-09-19T15:47:14.783Z,33.96
2018-09-19T15:49:43.348Z,33.98
2018-09-19T15:52:12.067Z,33.85
2018-09-19T15:54:40.724Z,34.64
2018-09-19T15:57:10.353Z,34.28
2018-09-19T15:59:39.112Z,35.68
2018-09-19T16:02:07.741Z,37.03
2018-09-19T16:04:36.668Z,37.21
2018-09-19T16:07:05.807Z,38.31
2018-09-19T16:09:34.618Z,38.16
2018-09-19T16:12:02.986Z,39.66
2018-09-19T16:14:31.605Z,39.49
2018-09-19T16:17:01.271Z,40.45
2018-09-19T16:19:30.539Z,41.03
2018-09-19T16:21:59.091Z,42.43
2018-09-19T16:24:27.985Z,42.67
2018-09-19T16:26:56.455Z,44.05
2018-09-19T16:29:25.357Z,44.95
2018-09-19T16:31:53.961Z,45.46
2018-09-19T16:34:22.813Z,45.72
2018-09-19T16:36:51.278Z,45.53
2018-09-19T16:39:19.834Z,46.05
2018-09-19T16:41:48.482Z,48.41
2018-09-19T16:44:17.285Z,49.30
2018-09-19T16:46:46.083Z,49.86
2018-09-19T16:49:14.898Z,50.23
2018-09-19T16:51:43.652Z,51.08
2018-09-19T16:54:12.271Z,51.38
2018-09-19T16:56:41.530Z,51.24
2018-09-19T16:59:10.131Z,52.64
2018-09-19T17:01:39.021Z,54.31
2018-09-19T17:04:08.577Z,53.69
2018-09-19T17:06:37.271Z,54.44
2018-09-19T17:09:07.548Z,55.06
2018-09-19T17:11:36.430Z,54.31
2018-09-19T17:14:04.984Z,54.67
2018-09-19T17:16:33.705Z,55.63
2018-09-19T17:19:03.276Z,55.98
2018-09-19T17:21:31.879Z,55.35
2018-09-19T17:24:01.093Z,56.33
2018-09-19T17:26:29.754Z,55.72
2018-09-19T17:28:59.051Z,55.59
2018-09-19T17:31:27.750Z,55.56
2018-09-19T17:33:57.319Z,54.99
2018-09-19T17:36:25.792Z,55.04
2018-09-19T17:38:54.461Z,55.73
2018-09-19T17:41:23.179Z,55.57
2018-09-19T17:43:51.980Z,56.83
2018-09-19T17:46:21.710Z,57.22
2018-09-19T17:48:50.436Z,57.51
2018-09-19T17:51:18.987Z,57.97
2018-09-19T17:53:47.614Z,58.68
2018-09-19T17:56:16.355Z,60.06
2018-09-19T17:58:45.033Z,59.77
2018-09-19T18:01:13.746Z,61.51
2018-09-19T18:03:42.593Z,61.97
2018-09-19T18:06:11.439Z,62.33
2018-09-19T18:08:39.966Z,63.63
2018-09-19T18:11:08.538Z,64.08
2018-09-19T18:13:37.191Z,66.90
2018-09-19T18:16:06.214Z,68.51
2018-09-19T18:18:34.732Z,67.18
2018-09-19T18:21:03.440Z,66.05
2018-09-19T18:23:31.998Z,66.10
2018-09-19T18:26:00.582Z,66.02
2018-09-19T18:28:29.053Z,65.04
2018-09-19T18:30:57.808Z,65.98
2018-09-19T18:33:26.338Z,66.74
2018-09-19T18:35:54.827Z,66.89
2018-09-19T18:38:23.423Z,66.74
2018-09-19T18:40:52.002Z,67.42
2018-09-19T18:43:20.700Z,68.11
2018-09-19T18:45:50.307Z,69.00
2018-09-19T18:48:18.977Z,69.50
2018-09-19T18:50:47.701Z,70.33
2018-09-19T18:53:16.241Z,71.53
2018-09-19T18:55:44.873Z,71.58
2018-09-19T18:58:13.415Z,71.51
2018-09-19T19:00:42.243Z,72.19
2018-09-19T19:03:10.910Z,72.84
2018-09-19T19:05:39.510Z,74.51
2018-09-19T19:08:08.197Z,75.01
2018-09-19T19:10:36.898Z,74.29
2018-09-19T19:13:05.684Z,74.99
2018-09-19T19:15:34.404Z,74.59
2018-09-19T19:18:03.102Z,74.72
2018-09-19T19:20:31.857Z,74.67
2018-09-19T19:23:00.602Z,75.78
2018-09-19T19:25:29.146Z,76.56
2018-09-19T19:27:57.785Z,77.02
2018-09-19T19:30:26.398Z,76.79
2018-09-19T19:32:55.097Z,77.37
2018-09-19T19:35:23.799Z,76.76
2018-09-19T19:37:52.330Z,77.24
2018-09-19T19:40:21.207Z,76.93
2018-09-19T19:42:49.949Z,77.43
2018-09-19T19:45:18.584Z,76.75
2018-09-19T19:47:47.147Z,77.95
2018-09-19T19:50:15.749Z,78.82
2018-09-19T19:52:44.533Z,78.61
2018-09-19T19:55:13.426Z,78.88
2018-09-19T19:57:43.483Z,79.14
2018-09-19T20:00:12.950Z,79.68
2018-09-19T20:02:41.646Z,80.65
2018-09-19T20:05:10.409Z,81.01
2018-09-19T20:07:39.143Z,81.21
2018-09-19T20:10:09.485Z,81.48
2018-09-19T20:12:38.754Z,81.47
2018-09-19T20:15:07.474Z,81.75
2018-09-19T20:17:36.144Z,81.88
2018-09-19T20:20:04.730Z,81.59
2018-09-19T20:22:33.494Z,80.48
2018-09-19T20:25:02.068Z,80.45
2018-09-19T20:27:30.734Z,80.95
2018-09-19T20:29:59.399Z,81.65
2018-09-19T20:32:27.865Z,81.13
2018-09-19T20:34:56.805Z,82.46
2018-09-19T20:37:25.336Z,82.15
2018-09-19T20:39:54.036Z,81.93
2018-09-19T20:42:23.694Z,82.26
2018-09-19T20:44:52.835Z,82.73
2018-09-19T20:47:21.505Z,83.77
2018-09-19T20:49:50.026Z,83.16
2018-09-19T20:52:18.770Z,82.77
2018-09-19T20:54:47.616Z,84.91
2018-09-19T20:57:16.208Z,85.42
2018-09-19T20:59:44.893Z,87.59
2018-09-19T21:02:13.493Z,88.06
2018-09-19T21:04:42.131Z,87.95
2018-09-19T21:07:10.681Z,87.65
2018-09-19T21:09:39.514Z,87.17
2018-09-19T21:12:08.070Z,85.35
2018-09-19T21:14:36.729Z,86.92
2018-09-19T21:17:05.393Z,86.55
2018-09-19T21:19:33.925Z,86.93
2018-09-19T21:22:03.314Z,85.58
2018-09-19T21:24:31.932Z,85.67
2018-09-19T21:27:00.493Z,85.00
2018-09-19T21:29:29.265Z,85.21
2018-09-19T21:31:57.824Z,85.59
2018-09-19T21:34:26.493Z,86.93
2018-09-19T21:36:55.059Z,86.67
2018-09-19T21:39:23.740Z,87.69
2018-09-19T21:41:52.322Z,87.60
2018-09-19T21:44:20.862Z,87.51
2018-09-19T21:46:49.505Z,87.88
2018-09-19T21:49:18.087Z,89.01
2018-09-19T21:51:46.688Z,89.07
2018-09-19T21:54:15.293Z,87.47
2018-09-19T21:56:43.853Z,87.00
2018-09-19T21:59:12.539Z,87.78
2018-09-19T22:01:42.067Z,87.67
2018-09-19T22:04:11.079Z,88.38
2018-09-19T22:06:40.106Z,87.36
2018-09-19T22:09:10.992Z,89.59
2018-09-19T22:11:40.107Z,89.71
2018-09-19T22:14:08.688Z,90.08
2018-09-19T22:16:37.295Z,89.69
2018-09-19T22:19:06.936Z,91.25
2018-09-19T22:21:35.522Z,90.12
2018-09-19T22:24:05.073Z,90.59
2018-09-19T22:26:34.055Z,89.29
2018-09-19T22:29:02.696Z,87.31
2018-09-19T22:31:31.261Z,88.27
2018-09-19T22:33:59.880Z,88.48
2018-09-19T22:36:28.418Z,89.44
2018-09-19T22:38:57.542Z,90.23
2018-09-19T22:41:26.190Z,90.52
2018-09-19T22:43:54.760Z,91.24
2018-09-19T22:46:24.345Z,90.71
2018-09-19T22:48:52.897Z,91.40
2018-09-19T22:51:21.597Z,94.53
2018-09-19T22:53:50.196Z,94.84
2018-09-19T22:56:18.761Z,93.89
2018-09-19T22:58:47.401Z,95.40
2018-09-19T23:01:16.057Z,96.50
2018-09-19T23:03:44.651Z,97.00
2018-09-19T23:06:13.322Z,95.84
2018-09-19T23:08:42.070Z,94.94
2018-09-19T23:11:10.557Z,94.36
2018-09-19T23:13:39.098Z,94.28
2018-09-19T23:16:07.911Z,95.04
2018-09-19T23:18:36.445Z,95.06
2018-09-19T23:21:05.298Z,93.57
2018-09-19T23:23:33.845Z,91.29
2018-09-19T23:26:02.447Z,92.15
2018-09-19T23:28:31.039Z,93.60
2018-09-19T23:30:59.517Z,94.28
2018-09-19T23:33:28.083Z,94.10
2018-09-19T23:35:56.655Z,93.63
2018-09-19T23:38:25.371Z,92.69
2018-09-19T23:40:53.970Z,93.11
2018-09-19T23:43:22.568Z,93.33
2018-09-19T23:45:51.224Z,95.39
2018-09-19T23:48:19.917Z,97.23
2018-09-19T23:50:49.685Z,96.79
2018-09-19T23:53:18.249Z,98.01
2018-09-19T23:55:46.883Z,99.70
2018-09-19T23:58:15.414Z,100.00
